Time;durP1;ratioP1;P1;durP2;ratioP2;P2;SDS_P1;SDS_P2;PMS_P1;PMS_P2;Temp;Humidity;BMP_temperature;BMP_pressure;BME280_temperature;BME280_humidity;BME280_pressure;Samples;Min_cycle;Max_cycle;Signal;HPM_P1;HPM_P2
2021/07/04 00:02:01;;;;;;;;;8.00;8.00;;;;;24.07;53.06;100617.31;5062149;28;45792;-57
2021/07/04 00:04:26;;;;;;;;;7.33;7.33;;;;;24.07;52.93;100625.47;5038791;28;48435;-56
2021/07/04 00:06:52;;;;;;;;;10.00;10.00;;;;;24.04;53.28;100621.16;5058878;28;45280;-56
2021/07/04 00:09:17;;;;;;;;;7.00;7.00;;;;;24.01;53.36;100617.78;5058966;28;45456;-56
2021/07/04 00:11:43;;;;;;;;;7.67;7.67;;;;;23.98;53.50;100615.34;5077815;28;45522;-57
2021/07/04 00:14:08;;;;;;;;;8.67;8.67;;;;;23.96;53.49;100617.31;5074017;28;47191;-55
2021/07/04 00:16:34;;;;;;;;;8.00;8.00;;;;;23.95;53.58;100618.28;5064271;28;45376;-55
2021/07/04 00:19:00;;;;;;;;;8.00;8.00;;;;;23.94;53.78;100613.88;5056482;28;45464;-56
2021/07/04 00:21:25;;;;;;;;;9.33;8.33;;;;;23.93;53.79;100609.44;5045912;28;45461;-58
2021/07/04 00:23:51;;;;;;;;;8.33;8.33;;;;;23.92;53.71;100614.00;5069875;28;46212;-55
2021/07/04 00:26:17;;;;;;;;;9.00;8.33;;;;;23.90;53.82;100607.81;5079013;28;45866;-55
2021/07/04 00:28:43;;;;;;;;;9.00;9.00;;;;;23.88;54.03;100607.06;5063451;28;45323;-56
2021/07/04 00:31:08;;;;;;;;;9.33;9.33;;;;;23.88;53.76;100603.50;5079652;28;45269;-57
2021/07/04 00:33:34;;;;;;;;;7.00;7.00;;;;;23.86;53.80;100609.03;5072076;28;47204;-57
2021/07/04 00:35:59;;;;;;;;;8.00;8.00;;;;;23.86;54.01;100592.78;5081099;28;45353;-56
2021/07/04 00:38:26;;;;;;;;;9.67;8.67;;;;;23.86;53.95;100592.78;5062313;28;46683;-56
2021/07/04 00:40:51;;;;;;;;;11.50;9.75;;;;;23.86;54.15;100590.06;5077828;28;45569;-56
2021/07/04 00:43:17;;;;;;;;;9.00;9.00;;;;;23.86;53.51;100583.78;5080291;28;47239;-57
2021/07/04 00:45:42;;;;;;;;;9.33;8.33;;;;;23.84;54.25;100575.78;5062396;27;45516;-56
2021/07/04 00:48:08;;;;;;;;;7.67;7.33;;;;;23.81;54.05;100577.88;5077142;28;45519;-56
2021/07/04 00:50:34;;;;;;;;;8.67;8.67;;;;;23.77;54.08;100575.41;5058463;28;45626;-54
2021/07/04 00:53:01;;;;;;;;;9.33;9.00;;;;;23.77;54.48;100588.09;5080119;28;45438;-56
2021/07/04 00:55:27;;;;;;;;;7.33;7.00;;;;;23.75;54.28;100584.63;5071490;28;45339;-55
2021/07/04 00:57:53;;;;;;;;;7.00;7.00;;;;;23.74;54.72;100582.91;5062727;28;45694;-57
2021/07/04 01:00:22;;;;;;;;;9.00;9.00;;;;;23.72;54.61;100580.31;5080187;27;45409;-57
2021/07/04 01:02:48;;;;;;;;;7.75;7.75;;;;;23.71;53.95;100578.59;5063757;28;47755;-55
2021/07/04 01:05:17;;;;;;;;;7.00;7.00;;;;;23.71;54.48;100578.59;5062479;28;45272;-57
2021/07/04 01:07:43;;;;;;;;;8.00;8.00;;;;;23.68;54.49;100577.97;5060578;28;45362;-55
2021/07/04 01:10:13;;;;;;;;;7.00;7.00;;;;;23.67;54.84;100570.84;5060187;28;45645;-58
2021/07/04 01:12:38;;;;;;;;;8.50;8.50;;;;;23.65;54.59;100565.53;5059546;28;48501;-56
2021/07/04 01:15:05;;;;;;;;;8.75;8.75;;;;;23.66;54.62;100569.97;5068861;28;45516;-56
2021/07/04 01:17:33;;;;;;;;;7.75;7.75;;;;;23.66;54.67;100563.69;5067725;28;45645;-56
2021/07/04 01:19:59;;;;;;;;;8.25;8.25;;;;;23.64;54.60;100561.09;5060855;28;45381;-60
2021/07/04 01:22:27;;;;;;;;;9.75;8.50;;;;;23.64;54.82;100566.53;5059915;28;48693;-55
2021/07/04 01:24:53;;;;;;;;;9.00;9.00;;;;;23.64;54.65;100563.81;5069734;28;45362;-56
2021/07/04 01:27:19;;;;;;;;;8.50;8.50;;;;;23.63;54.73;100561.19;5080430;28;45437;-55
2021/07/04 01:29:44;;;;;;;;;8.50;8.50;;;;;23.61;54.81;100557.75;5080268;27;45283;-59
2021/07/04 01:32:10;;;;;;;;;8.25;8.25;;;;;23.60;55.22;100553.31;5080273;28;48151;-56
2021/07/04 01:34:35;;;;;;;;;8.75;8.50;;;;;23.54;54.65;100557.34;5079989;28;45910;-57
2021/07/04 01:37:01;;;;;;;;;7.50;7.50;;;;;23.53;55.03;100550.22;5080688;27;45814;-55
2021/07/04 01:39:28;;;;;;;;;9.75;9.00;;;;;23.51;55.26;100556.75;5068744;28;45608;-56
2021/07/04 01:41:54;;;;;;;;;8.25;6.75;;;;;23.50;54.91;100563.97;5054802;28;48616;-58
2021/07/04 01:44:20;;;;;;;;;8.25;8.25;;;;;23.49;55.33;100557.69;5070944;28;45733;-57
2021/07/04 01:46:45;;;;;;;;;8.50;8.50;;;;;23.49;55.26;100560.41;5070893;27;45270;-56
2021/07/04 01:49:11;;;;;;;;;8.00;7.25;;;;;23.50;55.26;100561.25;5065625;28;45381;-57
2021/07/04 01:51:37;;;;;;;;;9.50;9.00;;;;;23.52;55.63;100555.75;5070617;28;47986;-57
2021/07/04 01:54:02;;;;;;;;;8.25;7.75;;;;;23.54;55.52;100560.06;5079577;28;46010;-57
2021/07/04 01:56:28;;;;;;;;;8.75;8.00;;;;;23.53;55.53;100562.91;5080465;28;45297;-58
2021/07/04 01:58:53;;;;;;;;;7.25;7.00;;;;;23.52;55.84;100556.63;5056933;28;45335;-57
2021/07/04 02:01:19;;;;;;;;;9.25;9.25;;;;;23.53;55.25;100547.50;5065682;28;46193;-57
2021/07/04 02:03:44;;;;;;;;;9.00;7.00;;;;;23.54;55.67;100553.78;5061472;28;45323;-56
2021/07/04 02:06:10;;;;;;;;;9.25;7.00;;;;;23.52;55.72;100553.91;5060454;28;45632;-57
2021/07/04 02:08:35;;;;;;;;;8.75;8.75;;;;;23.53;55.57;100554.78;5065738;27;45294;-58
2021/07/04 02:11:01;;;;;;;;;7.00;7.00;;;;;23.53;55.41;100554.78;5059208;28;47332;-57
2021/07/04 02:13:26;;;;;;;;;6.75;6.75;;;;;23.52;55.54;100555.75;5059357;28;45405;-55
2021/07/04 02:15:52;;;;;;;;;8.25;8.25;;;;;23.51;55.78;100549.47;5059301;28;45422;-56
2021/07/04 02:18:18;;;;;;;;;8.00;8.00;;;;;23.51;55.82;100549.47;5078231;27;45453;-55
2021/07/04 02:20:49;;;;;;;;;8.00;8.00;;;;;23.52;55.55;100542.22;5045683;28;47023;-54
2021/07/04 02:23:16;;;;;;;;;6.25;6.25;;;;;23.51;55.65;100544.06;5074136;28;45412;-56
2021/07/04 02:25:44;;;;;;;;;6.00;5.00;;;;;23.54;55.82;100543.81;5052294;28;45543;-58
2021/07/04 02:28:13;;;;;;;;;5.25;5.25;;;;;23.55;55.68;100540.13;5065739;28;45622;-57
2021/07/04 02:30:39;;;;;;;;;6.75;6.75;;;;;23.57;55.72;100538.16;5056935;28;48182;-57
2021/07/04 02:33:06;;;;;;;;;8.75;7.25;;;;;23.57;55.79;100543.56;5044086;28;45375;-55
2021/07/04 02:35:35;;;;;;;;;6.25;6.25;;;;;23.56;55.73;100539.13;5079500;28;45332;-55
2021/07/04 02:38:01;;;;;;;;;7.75;7.75;;;;;23.58;55.88;100530.91;5071906;28;45473;-55
2021/07/04 02:40:27;;;;;;;;;6.50;6.00;;;;;23.58;56.19;100536.34;5072365;28;47299;-57
2021/07/04 02:42:53;;;;;;;;;6.00;6.00;;;;;23.58;55.95;100539.03;5051351;28;45622;-57
2021/07/04 02:45:19;;;;;;;;;7.00;7.00;;;;;23.59;55.57;100533.50;5071969;27;45379;-57
2021/07/04 02:47:45;;;;;;;;;7.00;7.00;;;;;23.59;56.10;100533.50;5052272;28;45369;-56
2021/07/04 02:50:11;;;;;;;;;7.00;7.00;;;;;23.60;55.78;100539.78;5051477;28;45504;-55
2021/07/04 02:52:37;;;;;;;;;7.67;7.67;;;;;23.57;55.74;100545.41;5071248;27;45676;-55
2021/07/04 02:55:08;;;;;;;;;6.33;6.33;;;;;23.53;55.86;100544.78;5078121;28;45310;-57
2021/07/04 02:57:34;;;;;;;;;6.00;6.00;;;;;23.51;55.83;100545.91;5079223;27;45609;-57
2021/07/04 03:00:00;;;;;;;;;6.33;6.33;;;;;23.48;55.88;100545.13;5078868;27;47218;-57
2021/07/04 03:02:26;;;;;;;;;8.67;7.00;;;;;23.48;56.21;100541.56;5061094;28;45650;-57
2021/07/04 03:04:52;;;;;;;;;7.67;6.00;;;;;23.46;56.04;100530.00;5060981;28;45429;-56
2021/07/04 03:07:18;;;;;;;;;7.00;6.00;;;;;23.46;56.18;100527.28;5071192;28;45473;-57
2021/07/04 03:09:44;;;;;;;;;6.00;6.00;;;;;23.45;56.13;100537.25;5065738;28;47176;-56
2021/07/04 03:12:10;;;;;;;;;5.67;5.67;;;;;23.46;56.15;100535.41;5078721;28;45637;-57
2021/07/04 03:14:35;;;;;;;;;8.67;8.67;;;;;23.44;55.86;100530.13;5071605;28;45507;-57
2021/07/04 03:17:01;;;;;;;;;8.00;8.00;;;;;23.44;56.29;100526.56;5058891;28;45354;-57
2021/07/04 03:19:27;;;;;;;;;7.00;7.00;;;;;23.45;55.96;100525.56;5058704;28;47968;-57
2021/07/04 03:21:52;;;;;;;;;7.00;7.00;;;;;23.43;56.14;100520.28;5059198;27;45237;-56
2021/07/04 03:24:18;;;;;;;;;8.00;8.00;;;;;23.44;56.11;100513.88;5058211;28;45609;-56
2021/07/04 03:26:43;;;;;;;;;9.25;9.25;;;;;23.47;55.99;100513.63;5058229;28;45308;-56
2021/07/04 03:29:08;;;;;;;;;7.50;7.50;;;;;23.48;56.45;100506.34;5058327;28;47948;-57
2021/07/04 03:31:34;;;;;;;;;7.00;7.00;;;;;23.48;56.20;100512.63;5067866;28;45760;-55
2021/07/04 03:34:00;;;;;;;;;9.00;8.00;;;;;23.50;56.56;100507.09;5040430;28;45422;-56
2021/07/04 03:36:25;;;;;;;;;12.75;11.00;;;;;23.50;55.91;100498.97;5067820;28;45576;-56
2021/07/04 03:38:51;;;;;;;;;12.33;10.00;;;;;23.51;56.15;100502.56;5051707;28;48095;-56
2021/07/04 03:41:16;;;;;;;;;10.00;10.00;;;;;23.52;56.36;100507.88;5059373;28;45640;-56
2021/07/04 03:43:42;;;;;;;;;10.75;10.75;;;;;23.53;56.11;100504.16;5066289;28;47618;-56
2021/07/04 03:46:07;;;;;;;;;9.00;9.00;;;;;23.54;56.40;100505.88;5049687;28;45338;-56
2021/07/04 03:48:33;;;;;;;;;10.25;9.75;;;;;23.55;56.24;100512.16;5054865;28;45622;-56
2021/07/04 03:50:59;;;;;;;;;9.67;8.33;;;;;23.55;55.95;100517.59;5058934;28;45382;-57
2021/07/04 03:53:24;;;;;;;;;9.00;8.67;;;;;23.55;56.47;100525.72;5078427;27;45360;-57
2021/07/04 03:55:50;;;;;;;;;9.00;9.00;;;;;23.53;56.71;100517.72;5078286;28;45407;-54
2021/07/04 03:58:15;;;;;;;;;8.67;7.00;;;;;23.54;56.46;100530.28;5081388;28;47164;-55
2021/07/04 04:00:41;;;;;;;;;8.00;8.00;;;;;23.53;57.06;100533.97;5068249;28;46049;-56
2021/07/04 04:03:06;;;;;;;;;10.33;10.00;;;;;23.52;57.57;100534.09;5061878;28;45395;-56
2021/07/04 04:05:32;;;;;;;;;9.33;7.33;;;;;23.46;57.68;100530.84;5051493;28;45337;-56
2021/07/04 04:07:57;;;;;;;;;8.33;8.00;;;;;23.43;57.83;100524.81;5061245;28;47534;-55
2021/07/04 04:10:23;;;;;;;;;4.67;4.67;;;;;23.39;58.05;100524.22;5062889;28;45301;-55
2021/07/04 04:12:49;;;;;;;;;5.67;5.00;;;;;23.34;57.88;100522.84;5072942;28;45586;-55
2021/07/04 04:15:14;;;;;;;;;3.67;3.00;;;;;23.28;57.43;100520.63;5061614;28;45287;-54
2021/07/04 04:17:40;;;;;;;;;1.00;1.00;;;;;23.22;57.24;100524.66;5067623;28;48042;-55
2021/07/04 04:20:07;;;;;;;;;2.33;2.33;;;;;23.16;57.75;100534.13;5061332;28;46042;-55
2021/07/04 04:22:33;;;;;;;;;3.00;3.00;;;;;23.10;57.19;100529.16;5073466;27;45378;-54
2021/07/04 04:24:59;;;;;;;;;1.33;1.33;;;;;23.03;57.03;100537.88;5065015;28;45676;-56
2021/07/04 04:27:24;;;;;;;;;2.00;2.00;;;;;22.96;57.13;100540.19;5076724;28;47364;-55
2021/07/04 04:29:50;;;;;;;;;2.00;2.00;;;;;22.90;57.46;100533.41;5059625;28;45374;-53
2021/07/04 04:32:16;;;;;;;;;1.00;1.00;;;;;22.79;57.64;100549.56;5055963;28;45292;-54
2021/07/04 04:34:41;;;;;;;;;2.00;2.00;;;;;22.68;57.94;100549.50;5061097;28;45309;-56
2021/07/04 04:37:07;;;;;;;;;2.00;2.00;;;;;22.62;58.35;100539.13;5047748;28;48312;-55
2021/07/04 04:39:33;;;;;;;;;2.00;1.00;;;;;22.55;58.41;100533.31;5070148;27;45574;-56
2021/07/04 04:41:58;;;;;;;;;2.00;1.00;;;;;22.51;58.49;100510.19;5056245;28;45406;-55
2021/07/04 04:44:24;;;;;;;;;2.00;2.00;;;;;22.52;59.42;100516.47;5076813;27;45628;-55
2021/07/04 04:46:49;;;;;;;;;2.00;2.00;;;;;22.52;58.84;100503.78;5066460;27;46072;-54
2021/07/04 04:49:15;;;;;;;;;1.00;1.00;;;;;22.50;58.86;100499.50;5043113;28;45295;-54
2021/07/04 04:51:41;;;;;;;;;2.00;2.00;;;;;22.49;59.70;100498.63;5071542;28;45444;-54
2021/07/04 04:54:08;;;;;;;;;1.67;1.67;;;;;22.47;59.49;100495.16;5076201;27;45497;-55
2021/07/04 04:56:34;;;;;;;;;1.67;1.67;;;;;22.44;59.21;100489.13;5069884;28;47331;-55
2021/07/04 04:59:00;;;;;;;;;2.67;2.67;;;;;22.38;59.35;100498.56;5063975;28;45723;-54
2021/07/04 05:01:28;;;;;;;;;2.00;1.00;;;;;22.30;59.58;100495.56;5067036;27;45763;-55
2021/07/04 05:03:57;;;;;;;;;3.00;1.33;;;;;22.23;60.07;100495.16;5065140;28;45671;-56
2021/07/04 05:06:22;;;;;;;;;1.67;1.67;;;;;22.18;60.04;100497.31;5058919;28;47397;-55
2021/07/04 05:08:48;;;;;;;;;2.00;2.00;;;;;22.18;60.78;100505.41;5064830;28;45707;-53
2021/07/04 05:11:13;;;;;;;;;2.00;2.00;;;;;22.19;60.91;100506.28;5080408;27;45476;-55
2021/07/04 05:13:39;;;;;;;;;2.00;2.00;;;;;22.19;60.56;100517.97;5045173;28;45492;-55
2021/07/04 05:16:06;;;;;;;;;3.00;2.67;;;;;22.19;60.33;100512.56;5042273;28;47569;-52
2021/07/04 05:18:32;;;;;;;;;3.00;2.33;;;;;22.18;60.41;100512.66;5073839;28;45358;-54
2021/07/04 05:20:58;;;;;;;;;3.00;3.00;;;;;22.14;60.35;100511.19;5072987;27;45252;-55
2021/07/04 05:23:24;;;;;;;;;2.00;2.00;;;;;22.13;60.05;100517.56;5042263;28;45362;-54
2021/07/04 05:25:50;;;;;;;;;2.00;2.00;;;;;22.13;60.57;100526.53;5063245;28;47838;-54
2021/07/04 05:28:16;;;;;;;;;2.00;2.00;;;;;22.14;60.38;100528.25;5067107;28;45768;-54
2021/07/04 05:30:42;;;;;;;;;1.67;1.67;;;;;22.16;60.66;100525.44;5075694;28;45584;-55
2021/07/04 05:33:08;;;;;;;;;2.67;2.67;;;;;22.16;61.16;100520.91;5074910;28;45483;-55
2021/07/04 05:35:34;;;;;;;;;3.00;3.00;;;;;22.13;61.04;100521.13;5063727;27;47229;-55
2021/07/04 05:38:00;;;;;;;;;4.67;3.00;;;;;22.14;61.24;100513.88;5074543;28;45353;-55
2021/07/04 05:40:25;;;;;;;;;3.00;3.00;;;;;22.18;60.68;100518.06;5061382;28;45535;-53
2021/07/04 05:42:53;;;;;;;;;3.00;3.00;;;;;22.21;61.38;100520.53;5076115;28;45337;-56
2021/07/04 05:45:25;;;;;;;;;5.33;4.00;;;;;22.22;61.32;100523.13;5075268;28;47620;-54
2021/07/04 05:47:52;;;;;;;;;4.33;4.33;;;;;22.22;61.05;100509.63;5069097;27;45578;-54
2021/07/04 05:50:18;;;;;;;;;5.00;4.00;;;;;22.27;61.18;100506.59;5061121;28;45307;-54
2021/07/04 05:52:45;;;;;;;;;4.00;4.00;;;;;22.31;60.87;100503.53;5067780;28;45479;-52
2021/07/04 05:55:12;;;;;;;;;4.67;4.67;;;;;22.36;60.96;100496.91;5059606;28;47177;-57
2021/07/04 05:57:38;;;;;;;;;4.00;4.00;;;;;22.37;60.69;100495.97;5068567;28;45413;-54
2021/07/04 06:00:06;;;;;;;;;4.00;4.00;;;;;22.39;60.65;100494.00;5071696;27;45412;-57
2021/07/04 06:02:31;;;;;;;;;3.67;3.67;;;;;22.42;61.16;100499.19;5064754;28;45390;-55
2021/07/04 06:04:57;;;;;;;;;5.00;5.00;;;;;22.44;60.97;100497.22;5061484;28;47952;-53
2021/07/04 06:07:22;;;;;;;;;5.00;4.00;;;;;22.43;61.00;100504.47;5068340;28;45282;-55
2021/07/04 06:09:47;;;;;;;;;5.00;5.00;;;;;22.42;61.32;100505.44;5059715;28;45673;-54
2021/07/04 06:12:13;;;;;;;;;4.67;4.00;;;;;22.44;60.84;100506.19;5049911;28;45540;-53
2021/07/04 06:14:39;;;;;;;;;4.00;4.00;;;;;22.46;60.74;100515.06;5072852;28;47244;-55
2021/07/04 06:17:05;;;;;;;;;4.00;4.00;;;;;22.49;60.86;100516.69;5067848;28;46009;-54
2021/07/04 06:19:30;;;;;;;;;5.67;5.00;;;;;22.51;60.75;100517.44;5075379;27;45497;-56
2021/07/04 06:21:56;;;;;;;;;5.00;5.00;;;;;22.48;60.52;100506.81;5066180;27;45334;-55
2021/07/04 06:24:21;;;;;;;;;6.00;6.00;;;;;22.49;60.56;100505.88;5068763;28;47215;-54
2021/07/04 06:26:47;;;;;;;;;7.00;6.00;;;;;22.52;60.98;100511.91;5075370;28;46217;-54
2021/07/04 06:29:12;;;;;;;;;5.00;5.00;;;;;22.53;60.66;100518.19;5070140;28;45721;-53
2021/07/04 06:31:38;;;;;;;;;4.33;4.33;;;;;22.55;60.49;100517.09;5072576;28;47207;-55
2021/07/04 06:34:03;;;;;;;;;5.33;5.33;;;;;22.59;61.02;100523.13;5043386;28;46838;-54
2021/07/04 06:36:29;;;;;;;;;5.67;5.00;;;;;22.65;60.75;100514.56;5066211;28;45951;-54
2021/07/04 06:38:56;;;;;;;;;6.00;6.00;;;;;22.70;60.69;100517.78;5069052;28;45364;-56
2021/07/04 06:41:21;;;;;;;;;6.33;5.33;;;;;22.74;60.19;100510.28;5074368;28;45759;-53
2021/07/04 06:43:47;;;;;;;;;5.33;4.67;;;;;22.78;59.76;100517.19;5059892;28;48399;-53
2021/07/04 06:46:13;;;;;;;;;5.33;5.00;;;;;22.79;59.65;100513.50;5061750;27;45515;-54
2021/07/04 06:48:38;;;;;;;;;6.00;4.00;;;;;22.81;59.25;100509.72;5063333;27;45327;-54
2021/07/04 06:51:05;;;;;;;;;6.33;6.00;;;;;22.82;59.26;100506.03;5065689;28;46977;-53
2021/07/04 06:53:31;;;;;;;;;3.67;3.67;;;;;22.85;59.16;100504.94;5060155;27;48186;-55
2021/07/04 06:55:57;;;;;;;;;5.00;4.00;;;;;22.86;59.15;100503.97;5062031;27;45429;-55
2021/07/04 06:58:23;;;;;;;;;5.67;5.67;;;;;22.88;59.01;100510.16;5041313;28;47147;-51
2021/07/04 07:00:49;;;;;;;;;4.00;3.33;;;;;22.86;58.99;100512.94;5049761;28;45935;-54
2021/07/04 07:03:14;;;;;;;;;5.33;5.00;;;;;22.86;58.57;100512.94;5073604;28;47140;-55
2021/07/04 07:05:40;;;;;;;;;3.00;3.00;;;;;22.85;58.55;100503.09;5047002;27;45944;-54
2021/07/04 07:08:05;;;;;;;;;5.00;5.00;;;;;22.86;58.47;100494.00;5052609;28;45944;-54
2021/07/04 07:10:31;;;;;;;;;6.00;6.00;;;;;22.87;58.79;100495.75;5067652;27;45564;-56
2021/07/04 07:12:58;;;;;;;;;3.33;3.33;;;;;22.87;58.55;100495.75;5062212;28;47326;-57
2021/07/04 07:15:24;;;;;;;;;4.00;4.00;;;;;22.87;58.41;100497.59;5043037;28;45784;-56
2021/07/04 07:17:49;;;;;;;;;5.00;5.00;;;;;22.90;58.37;100502.78;5061580;28;45483;-56
2021/07/04 07:20:15;;;;;;;;;4.00;4.00;;;;;22.93;58.27;100501.66;5058821;27;45386;-56
2021/07/04 07:22:41;;;;;;;;;3.67;3.67;;;;;22.95;58.28;100505.13;5060611;28;48163;-57
2021/07/04 07:25:08;;;;;;;;;5.67;4.67;;;;;22.94;58.21;100496.13;5063799;28;45477;-54
2021/07/04 07:27:34;;;;;;;;;4.00;4.00;;;;;22.95;57.98;100505.97;5063109;28;45683;-56
2021/07/04 07:29:59;;;;;;;;;5.00;5.00;;;;;22.94;58.21;100517.78;5060024;27;47376;-57
2021/07/04 07:32:27;;;;;;;;;3.75;3.75;;;;;22.92;57.92;100514.34;5054962;28;48461;-57
2021/07/04 07:34:53;;;;;;;;;3.67;3.67;;;;;22.90;57.71;100509.06;5077823;28;45247;-55
2021/07/04 07:37:19;;;;;;;;;2.67;2.67;;;;;22.88;57.88;100508.31;5053566;28;45704;-55
2021/07/04 07:39:45;;;;;;;;;3.00;3.00;;;;;22.88;57.57;100515.56;5066830;28;45531;-53
2021/07/04 07:42:11;;;;;;;;;3.00;3.00;;;;;22.90;57.88;100524.44;5047867;28;47827;-56
2021/07/04 07:44:37;;;;;;;;;4.00;4.00;;;;;22.93;57.72;100526.03;5055045;28;45516;-55
2021/07/04 07:47:04;;;;;;;;;4.00;4.00;;;;;22.96;57.80;100532.06;5057083;28;45441;-55
2021/07/04 07:49:29;;;;;;;;;2.67;2.67;;;;;22.96;58.05;100537.47;5073677;28;45449;-56
2021/07/04 07:51:55;;;;;;;;;3.00;3.00;;;;;22.98;57.66;100535.50;5080870;27;47544;-57
2021/07/04 07:54:21;;;;;;;;;4.00;3.50;;;;;23.01;58.02;100524.47;5061507;27;45358;-56
2021/07/04 07:56:47;;;;;;;;;5.25;5.25;;;;;23.05;57.67;100525.94;5069551;28;45507;-53
2021/07/04 07:59:13;;;;;;;;;3.33;2.67;;;;;23.12;57.61;100529.03;5070585;28;45297;-55
2021/07/04 08:01:39;;;;;;;;;3.00;3.00;;;;;23.13;57.54;100537.06;5070033;28;47168;-55
2021/07/04 08:04:04;;;;;;;;;3.00;3.00;;;;;23.13;57.52;100537.06;5069429;28;45409;-54
2021/07/04 08:06:30;;;;;;;;;3.33;3.33;;;;;23.13;57.51;100530.78;5057564;28;45601;-55
2021/07/04 08:08:55;;;;;;;;;4.67;4.00;;;;;23.09;57.13;100526.56;5065702;28;45645;-54
2021/07/04 08:11:21;;;;;;;;;3.00;3.00;;;;;23.00;57.00;100533.56;5056653;28;47306;-54
2021/07/04 08:13:46;;;;;;;;;3.00;3.00;;;;;22.91;56.70;100528.84;5077527;28;46576;-56
2021/07/04 08:16:14;;;;;;;;;3.67;3.67;;;;;22.80;56.83;100531.47;5059231;28;45519;-60
2021/07/04 08:18:40;;;;;;;;;4.33;4.33;;;;;22.73;57.36;100536.47;5056565;28;45405;-58
2021/07/04 08:21:05;;;;;;;;;5.67;3.33;;;;;22.72;57.66;100526.63;5065180;28;47533;-58
2021/07/04 08:23:31;;;;;;;;;4.00;3.00;;;;;22.72;57.35;100528.47;5072915;28;45722;-58
2021/07/04 08:25:57;;;;;;;;;3.00;3.00;;;;;22.74;57.49;100507.56;5057422;28;45347;-60
2021/07/04 08:28:22;;;;;;;;;4.33;4.33;;;;;22.78;57.47;100498.25;5055499;28;45514;-58
2021/07/04 08:30:48;;;;;;;;;4.33;3.67;;;;;22.85;57.01;100496.84;5055618;28;47262;-58
2021/07/04 08:33:14;;;;;;;;;3.00;3.00;;;;;22.95;57.38;100480.75;5072381;28;45472;-59
2021/07/04 08:35:40;;;;;;;;;3.00;3.00;;;;;;;;5067941;27;45318;-58
2021/07/04 08:38:06;;;;;;;;;3.00;3.00;;;;;23.21;56.02;100468.78;5063806;28;45291;-59
2021/07/04 08:40:31;;;;;;;;;2.00;2.00;;;;;23.30;56.27;100465.34;5056459;28;45831;-58
2021/07/04 08:42:57;;;;;;;;;1.33;1.00;;;;;23.39;55.53;100471.91;5054144;28;46956;-59
2021/07/04 08:45:23;;;;;;;;;1.33;1.33;;;;;23.44;54.40;100484.06;5066019;28;45406;-60
2021/07/04 08:47:48;;;;;;;;;2.33;1.67;;;;;23.47;55.00;100486.53;5047468;28;45506;-59
2021/07/04 08:50:14;;;;;;;;;3.67;2.00;;;;;23.52;54.89;100485.34;5046801;28;47211;-59
2021/07/04 08:52:40;;;;;;;;;3.33;3.00;;;;;23.57;54.92;100483.97;5060417;28;45366;-59
2021/07/04 08:55:09;;;;;;;;;1.33;1.33;;;;;23.64;54.97;100496.09;5056536;28;45507;-61
2021/07/04 08:57:34;;;;;;;;;2.00;2.00;;;;;23.71;54.89;100500.00;5055786;28;45696;-58
2021/07/04 09:00:00;;;;;;;;;2.00;2.00;;;;;23.77;54.62;100501.38;5066758;28;47072;-58
2021/07/04 09:02:32;;;;;;;;;3.67;3.00;;;;;23.80;54.98;100501.13;5078022;28;45728;-58
2021/07/04 09:05:04;;;;;;;;;1.67;1.67;;;;;23.82;54.17;100503.72;5073308;27;45673;-58
2021/07/04 09:07:31;;;;;;;;;1.00;1.00;;;;;23.80;54.00;100501.13;5080033;28;45381;-59
2021/07/04 09:10:00;;;;;;;;;2.00;2.00;;;;;23.76;53.42;100499.66;5082867;27;46510;-58
2021/07/04 09:12:47;;;;;;;;;0.67;0.67;;;;;23.68;52.90;100494.00;5064986;28;45389;-58
2021/07/04 09:15:16;;;;;;;;;1.00;1.00;;;;;23.60;52.92;100497.28;5068775;27;45573;-58
2021/07/04 09:17:45;;;;;;;;;0.67;0.67;;;;;23.52;52.79;100496.16;5073953;28;45540;-58
2021/07/04 09:20:18;;;;;;;;;0.00;0.00;;;;;23.42;52.39;100499.59;5077290;27;45959;-59
2021/07/04 09:22:47;;;;;;;;;1.33;1.33;;;;;23.34;52.16;100498.47;5066452;27;45866;-59
2021/07/04 09:25:18;;;;;;;;;1.00;1.00;;;;;23.28;52.89;100494.41;5060215;28;45404;-59
2021/07/04 09:28:10;;;;;;;;;0.67;0.67;;;;;23.21;52.21;100487.72;5065924;28;45508;-59
2021/07/04 09:30:53;;;;;;;;;1.00;1.00;;;;;23.16;52.11;100487.22;5050956;28;47145;-58
2021/07/04 09:33:23;;;;;;;;;1.00;1.00;;;;;23.10;52.01;100485.84;5053694;28;45890;-58
2021/07/04 09:36:01;;;;;;;;;1.00;1.00;;;;;23.06;53.16;100478.97;5067693;27;45586;-58
2021/07/04 09:38:33;;;;;;;;;1.00;1.00;;;;;23.16;52.71;100481.81;5060145;27;46197;-58
2021/07/04 09:41:00;;;;;;;;;2.67;2.67;;;;;23.24;52.72;100481.19;5061880;27;47134;-59
2021/07/04 09:43:31;;;;;;;;;1.67;1.33;;;;;23.32;52.58;100473.34;5052575;28;45417;-59
2021/07/04 09:45:59;;;;;;;;;1.67;1.67;;;;;23.42;52.17;100463.53;5071560;27;45555;-58
2021/07/04 09:48:27;;;;;;;;;1.67;1.00;;;;;23.49;51.77;100464.75;5049851;28;45629;-58
2021/07/04 09:50:55;;;;;;;;;0.67;0.67;;;;;23.57;52.00;100454.16;5033540;28;47831;-70
2021/07/04 09:53:30;;;;;;;;;3.00;2.00;;;;;23.66;52.08;100452.63;5049728;28;45694;-74
2021/07/04 09:56:17;;;;;;;;;1.67;0.67;;;;;23.78;51.95;100457.03;5071228;27;45565;-69
2021/07/04 09:58:46;;;;;;;;;1.00;1.00;;;;;23.86;51.78;100450.97;5066577;28;45459;-73
2021/07/04 10:01:39;;;;;;;;;2.00;2.00;;;;;23.92;51.49;100458.63;5057806;28;45471;-67
2021/07/04 10:04:08;;;;;;;;;1.33;1.33;;;;;23.96;51.23;100439.28;5062374;28;46082;-67
2021/07/04 10:06:48;;;;;;;;;2.67;2.67;;;;;24.00;51.50;100448.00;5070562;28;45399;-65
2021/07/04 10:09:14;;;;;;;;;1.67;1.67;;;;;24.04;51.37;100452.22;5069583;27;45416;-66
2021/07/04 10:11:40;;;;;;;;;0.67;0.67;;;;;24.07;51.26;100443.81;5066668;28;48326;-73
2021/07/04 10:14:05;;;;;;;;;2.00;2.00;;;;;24.05;51.36;100443.94;5059430;28;45496;-75
2021/07/04 10:16:32;;;;;;;;;1.33;1.33;;;;;24.11;51.08;100453.41;5067547;28;45379;-65
2021/07/04 10:19:01;;;;;;;;;2.67;2.67;;;;;24.14;50.79;100446.88;5059653;28;45397;-70
2021/07/04 10:21:27;;;;;;;;;3.00;1.67;;;;;24.17;51.01;100444.78;5052568;27;48042;-71
2021/07/04 10:23:57;;;;;;;;;4.67;2.00;;;;;24.20;51.17;100449.94;5020675;28;45666;-73
2021/07/04 10:26:23;;;;;;;;;0.67;0.67;;;;;24.26;50.85;100444.00;5066061;27;45855;-75
2021/07/04 10:28:49;;;;;;;;;2.33;2.33;;;;;24.33;50.49;100447.13;5058323;28;45752;-73
2021/07/04 10:31:17;;;;;;;;;0.67;0.67;;;;;24.43;50.65;100444.50;5081315;27;47239;-73
2021/07/04 10:33:44;;;;;;;;;1.67;1.67;;;;;24.56;50.43;100443.34;5068472;27;45307;-70
2021/07/04 10:36:18;;;;;;;;;2.00;2.00;;;;;24.70;50.32;100438.59;5068218;27;45764;-75
2021/07/04 10:38:47;;;;;;;;;0.67;0.67;;;;;24.79;49.35;100438.69;5053336;27;45488;-70
2021/07/04 10:41:17;;;;;;;;;2.33;1.67;;;;;24.83;49.08;100437.41;5067523;27;45575;-71
2021/07/04 10:43:57;;;;;;;;;1.67;1.67;;;;;24.79;48.42;100438.69;5049929;27;45668;-73
2021/07/04 10:46:42;;;;;;;;;0.00;0.00;;;;;24.74;48.61;100440.03;5065357;28;45659;-74
2021/07/04 10:49:20;;;;;;;;;0.67;0.67;;;;;24.63;48.22;100425.53;5063051;28;45533;-73
2021/07/04 10:51:56;;;;;;;;;1.00;1.00;;;;;24.59;48.67;100423.22;5061884;27;47700;-72
2021/07/04 10:54:46;;;;;;;;;2.00;2.00;;;;;24.64;48.57;100415.53;5053360;27;45495;-75
2021/07/04 10:57:26;;;;;;;;;0.67;0.67;;;;;24.68;48.47;100425.16;5050620;28;46067;-73
2021/07/04 11:00:04;;;;;;;;;1.33;1.33;;;;;24.73;48.29;100422.91;5060427;28;45488;-70
2021/07/04 11:02:41;;;;;;;;;1.00;1.00;;;;;24.76;48.37;100421.78;5055858;27;48035;-72
2021/07/04 11:05:11;;;;;;;;;1.00;1.00;;;;;24.81;48.42;100414.97;5074647;27;45316;-72
2021/07/04 11:07:51;;;;;;;;;0.00;0.00;;;;;24.79;47.74;100416.97;5065016;27;45854;-71
2021/07/04 11:10:20;;;;;;;;;1.67;1.67;;;;;24.70;48.09;100422.31;5071803;27;45619;-68
2021/07/04 11:12:46;;;;;;;;;1.00;1.00;;;;;24.64;48.12;100418.25;5074555;27;48294;-66
2021/07/04 11:15:12;;;;;;;;;1.00;1.00;;;;;24.65;48.77;100425.44;5062235;27;45507;-67
2021/07/04 11:20:26;;;;;;;;;1.00;1.00;;;;;24.79;48.88;100419.69;5073724;28;45524;-68
2021/07/04 11:23:00;;;;;;;;;1.00;1.00;;;;;24.86;48.26;100420.84;5057298;28;48267;-70
2021/07/04 11:25:39;;;;;;;;;0.33;0.33;;;;;24.85;48.18;100415.56;5074491;27;45365;-68
2021/07/04 11:28:18;;;;;;;;;1.33;1.33;;;;;24.85;48.43;100416.41;5069522;27;45480;-70